Time;durP1;ratioP1;P1;durP2;ratioP2;P2;SDS_P1;SDS_P2;PMS_P1;PMS_P2;Temp;Humidity;BMP_temperature;BMP_pressure;BME280_temperature;BME280_humidity;BME280_pressure;Samples;Min_cycle;Max_cycle;Signal;HPM_P1;HPM_P2
2022/09/14 00:01:16;;;;;;;2.33;2.22;;;;;;;19.28;51.17;101209.39;1485122;96;21116;-51
2022/09/14 00:03:43;;;;;;;2.25;2.02;;;;;;;19.27;51.14;101211.62;1504617;95;21133;-57
2022/09/14 00:06:12;;;;;;;2.33;2.12;;;;;;;19.23;51.19;101216.66;1472488;97;21124;-52
2022/09/14 00:08:41;;;;;;;1.95;1.80;;;;;;;19.20;51.30;101219.47;1506461;95;21132;-53
2022/09/14 00:11:13;;;;;;;1.80;1.70;;;;;;;19.19;51.44;101221.70;1478064;96;21148;-54
2022/09/14 00:13:43;;;;;;;1.90;1.80;;;;;;;19.19;51.36;101226.13;1446510;97;21176;-51
2022/09/14 00:16:20;;;;;;;2.55;1.98;;;;;;;19.18;51.29;101227.93;1440379;99;21164;-59
2022/09/14 00:18:53;;;;;;;1.82;1.72;;;;;;;19.16;51.26;101233.75;1440143;98;21090;-56
2022/09/14 00:21:20;;;;;;;2.42;1.70;;;;;;;19.13;51.32;101237.84;1439112;99;21114;-54
2022/09/14 00:23:47;;;;;;;1.85;1.70;;;;;;;19.10;51.32;101238.47;1417981;101;21091;-57
2022/09/14 00:26:17;;;;;;;2.02;1.60;;;;;;;19.06;51.36;101236.42;1417961;101;21536;-55
2022/09/14 00:28:47;;;;;;;1.70;1.60;;;;;;;19.05;51.40;101234.73;1451757;97;21138;-59
2022/09/14 00:31:14;;;;;;;1.60;1.50;;;;;;;19.05;51.37;101237.37;1397851;102;21226;-54
2022/09/14 00:33:42;;;;;;;4.08;1.92;;;;;;;19.04;51.29;101231.69;1398403;102;21121;-52
2022/09/14 00:36:18;;;;;;;1.62;1.52;;;;;;;19.00;51.32;101228.81;1399968;102;21163;-55
2022/09/14 00:38:45;;;;;;;1.75;1.65;;;;;;;18.98;51.34;101235.94;1400112;102;21089;-54
2022/09/14 00:41:17;;;;;;;1.60;1.50;;;;;;;18.95;51.43;101232.16;1400045;102;21157;-54
2022/09/14 00:44:07;;;;;;;1.60;1.50;;;;;;;18.94;51.50;101240.98;1358213;105;21165;-52
2022/09/14 00:46:46;;;;;;;1.62;1.52;;;;;;;18.94;51.54;101229.11;1336495;106;21165;-54
2022/09/14 00:49:26;;;;;;;1.80;1.70;;;;;;;18.94;51.46;101233.55;1375830;104;21110;-56
2022/09/14 00:52:09;;;;;;;2.25;2.00;;;;;;;18.93;51.52;101232.69;1390387;103;21180;-56
2022/09/14 00:54:39;;;;;;;2.77;1.80;;;;;;;18.91;51.42;101231.91;1351393;106;21668;-54
2022/09/14 00:57:06;;;;;;;1.92;1.60;;;;;;;18.89;51.35;101233.77;1331888;107;21136;-55
2022/09/14 00:59:37;;;;;;;2.12;1.65;;;;;;;18.87;51.59;101237.41;1351346;106;21139;-54
2022/09/14 01:02:04;;;;;;;2.70;1.80;;;;;;;18.85;51.70;101240.13;1331816;107;21164;-57
2022/09/14 01:04:31;;;;;;;2.02;1.62;;;;;;;18.84;51.63;101240.17;1351521;106;21664;-58
2022/09/14 01:07:21;;;;;;;2.95;1.70;;;;;;;18.85;51.59;101245.39;1351316;106;21119;-55
2022/09/14 01:09:56;;;;;;;1.85;1.72;;;;;;;18.85;51.40;101240.13;1400039;100;21155;-56
2022/09/14 01:12:48;;;;;;;2.00;1.90;;;;;;;18.83;51.31;101239.34;1420523;100;21116;-54
2022/09/14 01:15:19;;;;;;;;;;;;;;;18.79;51.29;101235.14;1405270;100;21148;-54
2022/09/14 01:18:07;;;;;;;1.70;1.60;;;;;;;18.75;51.21;101237.54;1378691;103;20147;-54
2022/09/14 01:20:45;;;;;;;1.77;1.67;;;;;;;18.71;51.17;101225.44;1381148;103;21665;-54
2022/09/14 01:23:42;;;;;;;1.77;1.67;;;;;;;18.69;51.34;101227.29;1337455;106;21213;-57
2022/09/14 01:26:45;;;;;;;1.72;1.62;;;;;;;18.67;51.27;101230.43;1339451;106;21134;-55
2022/09/14 01:29:19;;;;;;;1.85;1.75;;;;;;;18.65;51.37;101227.02;1366518;104;21168;-61
2022/09/14 01:31:57;;;;;;;2.00;1.90;;;;;;;18.60;51.31;101218.03;1436670;97;21135;-58
2022/09/14 01:34:43;;;;;;;1.50;1.40;;;;;;;18.58;51.38;101222.98;1448143;98;21203;-62
2022/09/14 01:37:18;;;;;;;2.00;1.80;;;;;;;18.56;51.49;101224.83;1466335;97;21569;-60
2022/09/14 01:39:52;;;;;;;1.80;1.70;;;;;;;18.56;51.58;101216.92;1453885;95;21511;-53
2022/09/14 01:42:20;;;;;;;1.50;1.40;;;;;;;18.55;51.58;101216.06;1492428;95;21123;-56
2022/09/14 01:44:50;;;;;;;1.95;1.72;;;;;;;18.55;51.43;101223.11;1497387;95;21080;-56
2022/09/14 01:47:30;;;;;;;3.10;1.62;;;;;;;18.52;51.48;101221.95;1512058;94;21101;-54
2022/09/14 01:50:08;;;;;;;1.50;1.40;;;;;;;18.49;51.34;101224.26;1504352;94;21057;-58
2022/09/14 01:52:48;;;;;;;2.08;1.77;;;;;;;18.46;51.39;101216.97;1503109;94;21176;-54
2022/09/14 01:55:23;;;;;;;1.52;1.42;;;;;;;18.43;51.43;101222.33;1503171;94;21576;-53
2022/09/14 01:58:13;;;;;;;1.70;1.60;;;;;;;18.42;51.45;101221.47;1502114;94;21158;-56
2022/09/14 02:00:44;;;;;;;2.65;2.45;;;;;;;18.42;51.51;101224.59;1500909;94;21663;-54
2022/09/14 02:03:21;;;;;;;1.80;1.70;;;;;;;18.40;51.45;101221.17;1511803;94;21177;-53
2022/09/14 02:06:01;;;;;;;1.70;1.60;;;;;;;18.37;51.50;101218.67;1449571;98;21956;-57
2022/09/14 02:08:29;;;;;;;1.60;1.50;;;;;;;18.37;51.45;101227.89;1414147;101;21186;-56
2022/09/14 02:10:56;;;;;;;3.10;1.90;;;;;;;18.35;51.54;101224.47;1414136;101;21194;-54
2022/09/14 02:13:24;;;;;;;1.70;1.60;;;;;;;18.34;51.48;101224.09;1414206;101;21209;-56
2022/09/14 02:15:51;;;;;;;1.77;1.67;;;;;;;18.34;51.53;101232.00;1435259;100;21128;-56
2022/09/14 02:18:18;;;;;;;1.82;1.72;;;;;;;18.33;51.60;101231.59;1435476;100;21617;-56
2022/09/14 02:21:02;;;;;;;1.90;1.80;;;;;;;18.33;51.62;101235.55;1472663;97;21178;-54
2022/09/14 02:23:29;;;;;;;1.82;1.72;;;;;;;18.33;51.63;101239.50;1445239;99;21160;-57
2022/09/14 02:25:55;;;;;;;2.00;1.90;;;;;;;18.33;51.65;101240.81;1445374;99;21150;-54
2022/09/14 02:28:22;;;;;;;2.10;2.00;;;;;;;18.31;51.74;101240.89;1445337;99;21164;-56
2022/09/14 02:31:26;;;;;;;2.35;2.17;;;;;;;18.30;51.81;101240.97;1445595;99;21154;-55
2022/09/14 02:34:21;;;;;;;2.08;1.92;;;;;;;18.29;51.84;101241.88;1445573;99;21619;-56
2022/09/14 02:37:07;;;;;;;1.90;1.80;;;;;;;18.26;51.81;101239.41;1445587;99;21129;-58
2022/09/14 02:40:11;;;;;;;2.35;1.70;;;;;;;18.24;51.82;101244.72;1445379;99;21641;-53
2022/09/14 02:42:58;;;;;;;2.15;1.95;;;;;;;18.23;51.77;101243.03;1443762;99;21067;-54
2022/09/14 02:45:45;;;;;;;2.12;2.02;;;;;;;18.22;51.76;101239.12;1464778;96;21136;-59
2022/09/14 02:48:36;;;;;;;2.30;2.20;;;;;;;18.21;51.76;101234.80;1488339;96;21156;-54
2022/09/14 02:51:21;;;;;;;2.58;2.37;;;;;;;18.21;51.72;101234.80;1491286;96;21596;-58
2022/09/14 02:53:58;;;;;;;2.80;2.60;;;;;;;18.21;51.79;101234.80;1474285;97;21559;-58
2022/09/14 02:56:25;;;;;;;2.98;2.77;;;;;;;18.20;51.78;101232.61;1469491;94;21086;-56
2022/09/14 02:58:53;;;;;;;2.80;2.60;;;;;;;18.19;51.83;101235.33;1506939;95;21119;-53
2022/09/14 03:01:22;;;;;;;2.70;2.50;;;;;;;18.17;51.84;101231.91;1499634;96;21578;-54
2022/09/14 03:03:48;;;;;;;4.45;2.87;;;;;;;18.15;52.02;101231.13;1507926;95;21103;-56
2022/09/14 03:06:15;;;;;;;3.27;2.98;;;;;;;18.14;52.10;101235.98;1499586;96;21102;-55
2022/09/14 03:08:42;;;;;;;3.27;3.00;;;;;;;18.13;52.14;101230.34;1507879;95;21143;-53
2022/09/14 03:11:09;;;;;;;3.40;3.10;;;;;;;18.12;52.20;101234.74;1499758;96;21143;-51
2022/09/14 03:13:37;;;;;;;3.05;2.80;;;;;;;18.12;52.15;101234.74;1580669;89;21613;-58
2022/09/14 03:16:08;;;;;;;3.08;2.87;;;;;;;18.12;52.19;101229.48;1573238;91;21643;-55
2022/09/14 03:18:35;;;;;;;3.50;3.20;;;;;;;18.13;52.18;101229.02;1549256;93;21558;-54
2022/09/14 03:21:04;;;;;;;3.45;3.15;;;;;;;18.14;52.25;101226.77;1574578;91;21531;-56
2022/09/14 03:23:41;;;;;;;3.35;3.05;;;;;;;18.15;52.23;101225.86;1574667;91;21546;-54
2022/09/14 03:26:20;;;;;;;4.10;3.00;;;;;;;18.16;52.30;101232.81;1572972;90;21061;-56
2022/09/14 03:28:54;;;;;;;3.17;2.98;;;;;;;18.16;52.10;101239.40;1549184;93;21147;-54
2022/09/14 03:31:21;;;;;;;3.30;3.00;;;;;;;18.16;52.04;101246.84;1588104;90;21078;-58
2022/09/14 03:33:57;;;;;;;3.42;3.17;;;;;;;18.10;52.14;101240.99;1619865;88;21080;-56
2022/09/14 03:36:26;;;;;;;3.45;3.20;;;;;;;18.14;52.09;101243.87;1618073;88;21121;-54
2022/09/14 03:38:54;;;;;;;4.00;3.17;;;;;;;18.14;51.92;101247.83;1620010;88;21073;-56
2022/09/14 03:41:21;;;;;;;3.45;3.15;;;;;;;18.11;51.99;101242.27;1620197;88;21060;-54
2022/09/14 03:43:48;;;;;;;3.87;3.58;;;;;;;18.10;52.08;101237.05;1619744;88;21121;-57
2022/09/14 03:46:17;;;;;;;4.90;3.60;;;;;;;18.08;52.14;101232.31;1620018;88;21076;-54
2022/09/14 03:48:44;;;;;;;3.55;3.25;;;;;;;18.06;52.16;101235.02;1619679;88;21513;-54
2022/09/14 03:51:12;;;;;;;3.37;3.10;;;;;;;18.06;52.16;101231.52;1619990;88;21100;-53
2022/09/14 03:53:38;;;;;;;3.98;3.67;;;;;;;18.06;52.05;101232.39;1619806;88;21100;-60
2022/09/14 03:56:09;;;;;;;3.75;3.45;;;;;;;18.07;52.10;101233.25;1620075;88;21124;-54
2022/09/14 03:58:36;;;;;;;3.65;3.35;;;;;;;18.06;52.07;101230.20;1594416;89;21093;-57
2022/09/14 04:01:05;;;;;;;4.00;3.70;;;;;;;18.05;52.03;101237.73;1595439;90;21066;-56
2022/09/14 04:03:32;;;;;;;4.00;3.70;;;;;;;18.04;52.12;101237.32;1536826;93;21567;-55
2022/09/14 04:05:59;;;;;;;4.35;3.95;;;;;;;18.05;52.11;101245.62;1533277;92;21067;-54
2022/09/14 04:08:26;;;;;;;4.00;3.70;;;;;;;18.06;52.07;101252.59;1532133;93;21139;-54
2022/09/14 04:10:53;;;;;;;4.17;3.85;;;;;;;18.06;52.11;101265.30;1530553;93;21583;-58
2022/09/14 04:13:20;;;;;;;4.05;3.72;;;;;;;18.05;52.11;101248.27;1532084;93;21136;-53
2022/09/14 04:15:58;;;;;;;4.85;3.90;;;;;;;18.05;52.26;101248.27;1529427;91;21136;-59
2022/09/14 04:18:26;;;;;;;4.58;4.17;;;;;;;18.06;52.33;101242.06;1512528;94;21133;-53
2022/09/14 04:20:59;;;;;;;4.20;3.87;;;;;;;18.06;52.41;101248.19;1523579;93;21065;-55
2022/09/14 04:23:26;;;;;;;4.35;3.98;;;;;;;18.09;52.39;101251.16;1487274;96;21525;-54
2022/09/14 04:25:53;;;;;;;4.35;3.95;;;;;;;18.10;52.35;101249.76;1463275;98;21181;-56
2022/09/14 04:28:20;;;;;;;5.20;4.70;;;;;;;18.11;52.31;101260.70;1455940;98;21063;-54
2022/09/14 04:30:58;;;;;;;4.83;4.42;;;;;;;18.12;52.30;101252.31;1456365;98;21169;-61
2022/09/14 04:33:29;;;;;;;4.62;4.22;;;;;;;18.11;52.43;101253.25;1393929;103;21098;-54
2022/09/14 04:35:58;;;;;;;4.72;4.22;;;;;;;18.12;52.51;101250.55;1393779;103;21152;-54
2022/09/14 04:38:24;;;;;;;4.85;4.45;;;;;;;18.14;52.56;101250.47;1393629;103;21189;-54
2022/09/14 04:40:51;;;;;;;4.78;4.12;;;;;;;18.16;52.55;101257.38;1375202;104;21669;-54
2022/09/14 04:43:18;;;;;;;4.75;4.35;;;;;;;18.18;52.58;101254.67;1375601;103;21182;-58
2022/09/14 04:45:45;;;;;;;8.15;5.08;;;;;;;18.22;52.59;101257.56;1410380;101;21615;-54
2022/09/14 04:48:11;;;;;;;5.17;4.70;;;;;;;18.25;52.69;101258.75;1412267;100;21871;-61
2022/09/14 04:50:38;;;;;;;5.30;4.90;;;;;;;18.28;52.71;101267.36;1412133;101;21192;-56
2022/09/14 04:53:05;;;;;;;5.00;4.60;;;;;;;18.32;52.72;101266.30;1411994;101;21115;-54
2022/09/14 04:55:32;;;;;;;5.20;4.80;;;;;;;18.37;52.77;101272.68;1446222;97;21150;-54
2022/09/14 04:57:58;;;;;;;5.58;5.08;;;;;;;18.41;52.82;101272.48;1473444;97;21574;-56
2022/09/14 05:00:25;;;;;;;5.28;4.60;;;;;;;18.46;52.79;101272.30;1507752;93;21121;-59
2022/09/14 05:02:51;;;;;;;4.58;4.20;;;;;;;18.50;52.60;101272.55;1538442;92;21117;-54
2022/09/14 05:05:18;;;;;;;5.50;5.00;;;;;;;18.53;52.70;101273.72;1528409;93;21091;-54
2022/09/14 05:07:46;;;;;;;6.10;4.72;;;;;;;18.58;52.71;101277.87;1538403;93;21076;-55
2022/09/14 05:10:14;;;;;;;5.47;5.00;;;;;;;18.64;52.74;101275.41;1538395;93;21103;-61
2022/09/14 05:12:41;;;;;;;5.37;4.67;;;;;;;18.70;52.78;101264.57;1538747;92;21088;-54
2022/09/14 05:15:09;;;;;;;4.92;4.53;;;;;;;18.75;52.66;101267.86;1537626;92;21157;-55
2022/09/14 05:17:36;;;;;;;5.00;4.60;;;;;;;18.79;52.48;101265.92;1536151;93;21057;-55
2022/09/14 05:20:05;;;;;;;5.33;4.30;;;;;;;18.84;52.41;101267.41;1545977;91;21106;-57
2022/09/14 05:22:33;;;;;;;5.10;4.70;;;;;;;18.86;52.33;101270.82;1571964;91;21036;-54
2022/09/14 05:25:00;;;;;;;5.00;4.60;;;;;;;18.90;52.35;101273.70;1592891;90;21163;-55
2022/09/14 05:27:26;;;;;;;5.45;4.53;;;;;;;18.95;52.38;101266.44;1590452;90;21555;-54
2022/09/14 05:29:53;;;;;;;5.15;4.72;;;;;;;19.02;52.18;101268.32;1675526;85;21039;-54
2022/09/14 05:32:19;;;;;;;5.35;4.85;;;;;;;19.06;52.03;101262.80;1694996;85;21094;-54
2022/09/14 05:34:46;;;;;;;5.03;4.50;;;;;;;19.11;52.01;101265.22;1695021;85;21051;-55
2022/09/14 05:37:13;;;;;;;4.72;4.35;;;;;;;19.14;51.94;101256.71;1695209;85;21468;-56
2022/09/14 05:39:40;;;;;;;4.72;4.33;;;;;;;19.17;51.96;101260.50;1695051;85;21015;-56
2022/09/14 05:42:06;;;;;;;6.67;4.70;;;;;;;19.19;52.02;101257.78;1689011;85;21121;-54
2022/09/14 05:44:34;;;;;;;4.60;4.22;;;;;;;19.24;51.75;101261.92;1695209;85;21071;-54
2022/09/14 05:47:00;;;;;;;5.17;4.67;;;;;;;19.31;51.67;101268.59;1694990;85;21527;-54
2022/09/14 05:49:27;;;;;;;4.90;4.40;;;;;;;19.39;51.64;101270.90;1695206;85;21011;-55
2022/09/14 05:51:54;;;;;;;4.40;4.10;;;;;;;19.44;51.57;101264.45;1695143;85;21106;-57
2022/09/14 05:54:21;;;;;;;6.62;4.75;;;;;;;19.54;51.35;101261.36;1694988;85;21047;-54
2022/09/14 05:56:48;;;;;;;5.28;4.08;;;;;;;19.60;51.05;101264.52;1695338;85;21047;-57
2022/09/14 05:59:15;;;;;;;4.03;3.72;;;;;;;19.67;50.94;101263.74;1694994;84;21055;-55
2022/09/14 06:01:41;;;;;;;4.28;3.87;;;;;;;19.73;50.88;101265.61;1692256;85;21527;-59
2022/09/14 06:04:08;;;;;;;4.60;4.20;;;;;;;19.81;50.91;101265.20;1694833;85;21583;-57
2022/09/14 06:06:34;;;;;;;4.90;4.35;;;;;;;19.90;50.73;101262.09;1695246;85;21050;-55
2022/09/14 06:09:02;;;;;;;5.05;4.65;;;;;;;19.99;50.53;101270.87;1694933;85;21047;-54
2022/09/14 06:11:31;;;;;;;5.92;4.47;;;;;;;20.08;50.27;101274.34;1695130;85;21055;-56
2022/09/14 06:13:59;;;;;;;4.17;3.87;;;;;;;20.16;49.70;101272.14;1695442;85;20991;-55
2022/09/14 06:16:26;;;;;;;4.53;4.12;;;;;;;20.23;49.41;101273.57;1695084;84;21042;-54
2022/09/14 06:18:55;;;;;;;4.10;3.70;;;;;;;20.31;49.51;101279.30;1695452;85;21051;-55
2022/09/14 06:21:22;;;;;;;4.00;3.62;;;;;;;20.38;49.28;101289.91;1695331;85;21011;-63
2022/09/14 06:23:48;;;;;;;5.65;4.08;;;;;;;20.46;49.09;101282.91;1695277;85;21496;-58
2022/09/14 06:26:15;;;;;;;5.45;3.70;;;;;;;20.54;49.10;101292.13;1695375;85;21043;-55
2022/09/14 06:28:42;;;;;;;4.00;3.65;;;;;;;20.63;49.21;101291.61;1695060;85;21015;-58
2022/09/14 06:31:13;;;;;;;4.85;3.92;;;;;;;20.75;49.08;101298.88;1695512;85;21511;-58
2022/09/14 06:33:45;;;;;;;3.80;3.50;;;;;;;20.87;49.07;101300.00;1711882;84;21591;-56
2022/09/14 06:36:15;;;;;;;4.28;3.90;;;;;;;21.00;48.80;101297.89;1645904;87;21118;-55
2022/09/14 06:38:41;;;;;;;4.08;3.67;;;;;;;21.14;48.36;101294.98;1646101;87;21017;-56
2022/09/14 06:41:11;;;;;;;3.80;3.50;;;;;;;21.23;47.89;101301.06;1646363;87;21076;-55
2022/09/14 06:43:39;;;;;;;5.08;4.40;;;;;;;21.30;47.21;101295.81;1646296;86;21004;-57
2022/09/14 06:46:19;;;;;;;3.72;3.42;;;;;;;21.36;46.31;101292.81;1646117;87;21027;-57
2022/09/14 06:48:50;;;;;;;4.00;3.60;;;;;;;21.40;46.21;101296.98;1646256;87;21531;-55
2022/09/14 06:51:32;;;;;;;4.37;3.98;;;;;;;21.46;45.59;101294.84;1626217;88;21062;-55
2022/09/14 06:53:59;;;;;;;4.37;3.98;;;;;;;21.53;45.27;101297.52;1623234;88;21126;-55
2022/09/14 06:56:27;;;;;;;3.65;3.45;;;;;;;21.60;45.27;101296.66;1626134;88;21090;-53
2022/09/14 06:58:53;;;;;;;4.20;3.90;;;;;;;21.67;45.22;101298.03;1626219;88;21074;-54
2022/09/14 07:01:20;;;;;;;4.50;4.10;;;;;;;21.76;45.04;101296.17;1625124;88;21052;-52
2022/09/14 07:03:47;;;;;;;4.10;3.80;;;;;;;21.84;44.57;101301.89;1626071;88;21520;-54
2022/09/14 07:06:18;;;;;;;3.92;3.62;;;;;;;21.90;44.34;101301.53;1626107;88;21074;-54
2022/09/14 07:08:45;;;;;;;4.03;3.72;;;;;;;21.95;44.14;101302.09;1623245;88;21121;-61
2022/09/14 07:11:13;;;;;;;4.30;3.87;;;;;;;21.98;44.24;101303.70;1625972;88;21154;-59
2022/09/14 07:13:40;;;;;;;4.12;3.25;;;;;;;22.02;44.13;101304.77;1626334;88;21026;-61
2022/09/14 07:16:07;;;;;;;5.37;3.33;;;;;;;22.06;44.05;101303.63;1574205;86;21657;-57
2022/09/14 07:18:35;;;;;;;3.80;3.50;;;;;;;22.13;43.80;101298.81;1570282;91;21112;-55
2022/09/14 07:21:04;;;;;;;3.50;3.20;;;;;;;22.21;43.76;101300.05;1558500;91;21099;-56
2022/09/14 07:23:31;;;;;;;3.25;3.05;;;;;;;22.35;43.60;101294.75;1560632;91;21155;-60
2022/09/14 07:26:06;;;;;;;3.22;3.02;;;;;;;22.52;43.10;101298.51;1559680;91;21083;-57
2022/09/14 07:28:33;;;;;;;3.65;3.35;;;;;;;22.68;42.44;101301.56;1494187;95;21726;-59
2022/09/14 07:31:00;;;;;;;2.77;2.58;;;;;;;22.80;42.05;101299.45;1497685;95;21153;-56
2022/09/14 07:33:27;;;;;;;3.42;3.10;;;;;;;22.85;41.81;101298.23;1505582;94;21144;-56
2022/09/14 07:35:54;;;;;;;2.87;2.67;;;;;;;22.89;41.79;101297.56;1514478;94;21144;-55
2022/09/14 07:38:21;;;;;;;2.75;2.50;;;;;;;22.91;41.71;101300.97;1513938;94;21053;-55
2022/09/14 07:40:48;;;;;;;3.17;2.87;;;;;;;22.94;41.29;101298.09;1512891;94;21084;-57
2022/09/14 07:43:14;;;;;;;2.75;2.47;;;;;;;22.96;41.09;101298.85;1514138;94;21101;-54
2022/09/14 07:45:41;;;;;;;2.80;2.50;;;;;;;22.95;40.98;101295.37;1504696;94;21089;-55
2022/09/14 07:48:08;;;;;;;2.80;2.60;;;;;;;22.97;40.70;101296.12;1514661;94;21604;-57
2022/09/14 07:50:36;;;;;;;2.45;2.25;;;;;;;22.99;40.95;101291.56;1513384;94;21648;-55
2022/09/14 07:53:02;;;;;;;2.83;2.60;;;;;;;23.03;40.93;101293.07;1513539;94;21165;-57
2022/09/14 07:55:29;;;;;;;2.77;2.58;;;;;;;23.07;40.64;101288.41;1514243;94;21089;-56
2022/09/14 07:57:56;;;;;;;2.52;2.33;;;;;;;23.12;40.68;101287.64;1509294;94;21634;-58
2022/09/14 08:00:23;;;;;;;3.02;2.52;;;;;;;23.17;40.41;101285.52;1512287;94;21108;-58
2022/09/14 08:02:54;;;;;;;5.37;2.58;;;;;;;23.22;40.18;101278.13;1512421;94;21106;-61
2022/09/14 08:05:21;;;;;;;3.55;3.25;;;;;;;23.24;40.06;101281.52;1514116;94;21116;-55
2022/09/14 08:07:54;;;;;;;4.03;3.62;;;;;;;23.28;39.65;101277.71;1511516;94;21116;-59
2022/09/14 08:10:21;;;;;;;5.17;4.47;;;;;;;23.31;39.69;101273.51;1511835;94;21125;-56
2022/09/14 08:12:52;;;;;;;3.85;3.45;;;;;;;23.34;39.51;101268.05;1512428;94;21085;-56
2022/09/14 08:15:22;;;;;;;3.52;2.85;;;;;;;23.38;39.42;101274.85;1528006;93;21171;-56
2022/09/14 08:17:49;;;;;;;3.12;2.62;;;;;;;23.42;39.28;101277.67;1460378;97;21121;-60
2022/09/14 08:20:16;;;;;;;3.22;2.30;;;;;;;23.45;38.88;101262.88;1470032;97;21107;-56
2022/09/14 08:22:43;;;;;;;3.30;3.00;;;;;;;23.50;39.13;101267.86;1459999;97;21072;-57
2022/09/14 08:25:10;;;;;;;2.98;2.67;;;;;;;23.53;39.06;101259.23;1505484;91;21112;-56
2022/09/14 08:27:37;;;;;;;4.28;2.70;;;;;;;23.57;39.19;101267.36;1566263;91;21096;-55
2022/09/14 08:30:05;;;;;;;4.17;3.17;;;;;;;23.62;39.35;101270.54;1560642;91;21113;-55
2022/09/14 08:32:32;;;;;;;3.35;3.10;;;;;;;23.66;39.26;101264.06;1560840;91;21068;-54
2022/09/14 08:34:59;;;;;;;4.75;3.50;;;;;;;23.71;39.46;101265.95;1561425;91;21053;-55
2022/09/14 08:37:26;;;;;;;3.08;2.83;;;;;;;23.75;39.40;101266.11;1563169;91;21610;-53
2022/09/14 08:39:53;;;;;;;3.10;2.85;;;;;;;23.78;39.01;101265.88;1563314;91;21592;-57
2022/09/14 08:42:21;;;;;;;2.85;2.65;;;;;;;23.84;38.84;101264.63;1561603;91;21785;-54
2022/09/14 08:44:57;;;;;;;4.12;3.65;;;;;;;23.86;38.60;101262.25;1560894;91;21093;-55
2022/09/14 08:47:33;;;;;;;3.08;2.77;;;;;;;23.91;38.73;101257.92;1552774;91;21573;-58
2022/09/14 08:50:17;;;;;;;2.98;2.77;;;;;;;23.96;38.48;101258.47;1520554;94;21127;-58
2022/09/14 08:52:52;;;;;;;4.90;3.37;;;;;;;24.01;38.44;101258.98;1511520;94;21083;-55
2022/09/14 08:55:32;;;;;;;4.30;2.80;;;;;;;24.06;38.43;101252.44;1511270;94;21129;-58
2022/09/14 08:58:29;;;;;;;2.72;2.52;;;;;;;24.12;38.33;101252.01;1506523;94;21147;-55
2022/09/14 09:01:37;;;;;;;2.58;2.37;;;;;;;24.19;37.97;101252.44;1509930;94;21142;-55
2022/09/14 09:04:34;;;;;;;2.58;2.37;;;;;;;24.24;37.46;101239.17;1509502;94;21084;-57
2022/09/14 09:07:37;;;;;;;2.70;2.35;;;;;;;24.31;37.13;101236.08;1514197;94;21576;-56
2022/09/14 09:10:05;;;;;;;2.20;2.10;;;;;;;24.38;37.23;101244.00;1490508;95;21140;-55
2022/09/14 09:12:43;;;;;;;2.65;2.45;;;;;;;24.44;36.75;101240.41;1490109;95;21056;-56
2022/09/14 09:15:23;;;;;;;4.50;2.12;;;;;;;24.49;36.63;101236.09;1490620;95;21108;-55
2022/09/14 09:18:10;;;;;;;2.62;2.30;;;;;;;24.54;36.92;101234.82;1467004;97;21106;-55
2022/09/14 09:20:41;;;;;;;2.98;2.65;;;;;;;24.60;36.81;101232.19;1434689;99;21642;-56
2022/09/14 09:23:18;;;;;;;2.40;2.20;;;;;;;24.68;37.02;101234.66;1432491;100;21154;-55
2022/09/14 09:26:10;;;;;;;2.77;2.25;;;;;;;24.73;36.50;101233.01;1430918;100;21204;-53
2022/09/14 09:28:42;;;;;;;2.60;2.40;;;;;;;24.79;36.67;101226.77;1430190;100;21749;-56
2022/09/14 09:31:09;;;;;;;3.15;2.90;;;;;;;24.88;37.49;101231.89;1430202;100;21603;-56
2022/09/14 09:33:38;;;;;;;2.65;2.45;;;;;;;24.95;38.33;101227.83;1372704;103;21680;-60
2022/09/14 09:36:07;;;;;;;2.60;2.40;;;;;;;25.00;36.83;101229.18;1372906;104;21113;-56
2022/09/14 09:38:34;;;;;;;2.30;2.05;;;;;;;25.05;36.23;101222.19;1350793;106;21126;-59
2022/09/14 09:41:25;;;;;;;3.58;2.47;;;;;;;25.10;36.38;101225.34;1352993;105;21732;-59
2022/09/14 09:44:05;;;;;;;2.98;2.67;;;;;;;25.15;38.21;101220.53;1394595;102;21115;-57
2022/09/14 09:46:50;;;;;;;3.50;2.58;;;;;;;25.21;39.40;101221.88;1361315;105;21161;-63
2022/09/14 09:49:37;;;;;;;3.05;2.85;;;;;;;25.24;39.56;101214.53;1370231;105;21678;-60
2022/09/14 09:52:13;;;;;;;2.95;2.75;;;;;;;25.27;39.76;101208.95;1349044;106;21648;-56
2022/09/14 09:54:43;;;;;;;3.33;2.98;;;;;;;25.30;39.57;101212.73;1351734;105;21153;-53
2022/09/14 09:57:29;;;;;;;3.40;3.10;;;;;;;25.31;39.82;101205.09;1357580;105;21144;-54
2022/09/14 10:00:20;;;;;;;3.98;2.98;;;;;;;25.31;39.30;101206.90;1350923;106;21163;-53
2022/09/14 10:02:47;;;;;;;3.92;3.20;;;;;;;25.31;39.86;101202.91;1351078;106;21233;-60
2022/09/14 10:05:33;;;;;;;3.20;2.90;;;;;;;25.30;40.06;101211.88;1333249;106;21173;-58
2022/09/14 10:08:02;;;;;;;3.58;2.92;;;;;;;25.29;39.98;101207.02;1352216;105;21238;-56
2022/09/14 10:10:44;;;;;;;4.25;3.08;;;;;;;25.29;39.98;101207.02;1319807;107;21783;-53
2022/09/14 10:13:33;;;;;;;5.92;3.10;;;;;;;25.27;40.15;101194.78;1331125;106;21192;-52
2022/09/14 10:16:16;;;;;;;3.30;2.98;;;;;;;25.28;40.34;101199.16;1368600;102;21173;-56
2022/09/14 10:18:49;;;;;;;3.40;3.10;;;;;;;25.28;40.36;101197.34;1384176;103;21136;-58
2022/09/14 10:21:18;;;;;;;3.30;2.92;;;;;;;25.28;40.46;101196.02;1360924;103;21192;-55
2022/09/14 10:23:45;;;;;;;2.83;2.45;;;;;;;25.26;40.07;101191.29;1376492;103;21632;-55
2022/09/14 10:26:18;;;;;;;3.22;2.67;;;;;;;25.25;40.13;101188.25;1390478;103;21169;-55
2022/09/14 10:28:46;;;;;;;2.60;2.40;;;;;;;25.26;39.93;101191.29;1387175;103;21188;-61
2022/09/14 10:31:21;;;;;;;2.47;2.27;;;;;;;25.28;39.96;101197.34;1389676;103;21137;-56
2022/09/14 10:33:52;;;;;;;3.15;2.65;;;;;;;25.29;39.01;101193.70;1351883;106;21276;-58
2022/09/14 10:36:30;;;;;;;2.70;2.17;;;;;;;25.30;39.58;101192.75;1386589;102;21632;-53
2022/09/14 10:39:21;;;;;;;2.67;2.47;;;;;;;25.31;39.67;101197.09;1388533;103;21703;-60
2022/09/14 10:42:20;;;;;;;2.40;2.20;;;;;;;25.32;39.54;101188.16;1388232;103;21140;-60
2022/09/14 10:45:13;;;;;;;2.52;2.33;;;;;;;25.33;39.44;101187.17;1388431;103;21177;-56
2022/09/14 10:48:05;;;;;;;2.62;2.42;;;;;;;25.34;39.56;101183.56;1388151;103;21657;-57
2022/09/14 10:50:55;;;;;;;5.62;2.60;;;;;;;25.36;39.58;101180.77;1383388;103;21157;-56
2022/09/14 10:53:49;;;;;;;2.40;2.15;;;;;;;25.38;39.16;101185.02;1420469;99;21177;-58
2022/09/14 10:56:27;;;;;;;3.00;2.30;;;;;;;25.40;39.49;101175.09;1443465;99;21101;-55
2022/09/14 10:59:21;;;;;;;2.37;2.17;;;;;;;25.41;39.21;101168.82;1445782;99;21147;-62
2022/09/14 11:02:16;;;;;;;2.70;2.50;;;;;;;25.41;39.28;101172.81;1447308;99;21152;-56
2022/09/14 11:05:00;;;;;;;2.12;1.98;;;;;;;25.41;39.53;101175.48;1447184;99;21171;-56
2022/09/14 11:07:59;;;;;;;5.33;2.27;;;;;;;25.42;39.22;101173.20;1460125;98;21160;-54
2022/09/14 11:10:48;;;;;;;4.47;1.98;;;;;;;25.43;39.32;101168.73;1502430;94;21129;-57
2022/09/14 11:13:43;;;;;;;3.47;2.00;;;;;;;25.47;39.81;101170.19;1523289;94;21069;-55
2022/09/14 11:16:24;;;;;;;3.08;1.65;;;;;;;25.48;39.46;101159.40;1529764;93;21182;-55
2022/09/14 11:19:11;;;;;;;3.05;2.02;;;;;;;25.52;39.16;101164.00;1539527;93;21581;-56
2022/09/14 11:22:04;;;;;;;2.33;2.17;;;;;;;25.53;38.86;101174.53;1500869;95;21076;-58
2022/09/14 11:25:00;;;;;;;1.98;1.70;;;;;;;25.53;39.03;101165.20;1501259;95;21225;-56
2022/09/14 11:27:36;;;;;;;2.02;1.80;;;;;;;25.55;39.84;101160.64;1481746;96;21161;-61
2022/09/14 11:30:14;;;;;;;2.40;2.15;;;;;;;25.58;39.30;101167.05;1449933;98;21131;-57
2022/09/14 11:32:50;;;;;;;3.92;2.10;;;;;;;25.63;39.19;101162.22;1457099;97;21083;-56
2022/09/14 11:35:24;;;;;;;3.05;2.02;;;;;;;25.61;39.08;101150.83;1481614;97;21075;-56
2022/09/14 11:38:04;;;;;;;1.90;1.65;;;;;;;25.68;39.61;101158.70;1458259;97;21151;-57
2022/09/14 11:40:58;;;;;;;2.62;2.27;;;;;;;25.70;38.98;101153.23;1454122;97;21349;-55
2022/09/14 11:43:36;;;;;;;2.62;2.20;;;;;;;25.71;38.72;101150.95;1429410;99;21089;-55
2022/09/14 11:46:17;;;;;;;3.25;2.00;;;;;;;25.72;39.08;101149.48;1428752;99;21575;-57
2022/09/14 11:49:20;;;;;;;4.62;2.33;;;;;;;25.72;39.24;101152.16;1371266;103;21138;-57
2022/09/14 11:52:04;;;;;;;2.83;2.05;;;;;;;25.72;39.52;101141.49;1371534;105;21145;-57
2022/09/14 11:54:31;;;;;;;2.20;2.02;;;;;;;25.54;39.93;101140.27;1364629;105;21194;-55